createdAt,value
2022-12-05T00:02:21.812Z,3.27
2022-12-05T00:07:25.819Z,3.35
2022-12-05T00:12:29.344Z,3.31
2022-12-05T00:17:33.188Z,3.34
2022-12-05T00:22:39.366Z,3.33
2022-12-05T00:27:43.061Z,3.29
2022-12-05T00:32:46.106Z,3.28
2022-12-05T00:37:50.097Z,3.26
2022-12-05T00:42:53.669Z,3.27
2022-12-05T00:47:56.685Z,3.25
2022-12-05T00:53:00.596Z,3.26
2022-12-05T00:58:04.216Z,3.19
2022-12-05T01:03:07.362Z,3.11
2022-12-05T01:08:11.070Z,3.11
2022-12-05T01:13:14.114Z,3.00
2022-12-05T01:18:18.629Z,2.99
2022-12-05T01:23:22.464Z,2.96
2022-12-05T01:28:26.121Z,2.93
2022-12-05T01:33:29.357Z,2.86
2022-12-05T01:38:32.442Z,2.82
2022-12-05T01:43:54.099Z,2.72
2022-12-05T01:49:04.161Z,2.60
2022-12-05T01:54:09.416Z,2.49
2022-12-05T01:59:13.814Z,2.50
2022-12-05T02:04:17.254Z,2.58
2022-12-05T02:09:21.267Z,2.57
2022-12-05T02:14:37.627Z,2.41
2022-12-05T02:19:58.881Z,2.43
2022-12-05T02:25:34.959Z,2.63
2022-12-05T02:30:58.420Z,2.56
2022-12-05T02:36:14.840Z,2.39
2022-12-05T02:41:45.701Z,2.19
2022-12-05T02:46:52.697Z,1.93
2022-12-05T02:51:58.743Z,1.83
2022-12-05T02:57:02.360Z,1.83
2022-12-05T03:02:05.718Z,1.79
2022-12-05T03:07:12.614Z,1.85
2022-12-05T03:12:42.597Z,2.07
2022-12-05T03:17:53.278Z,2.00
2022-12-05T03:23:21.987Z,1.79
2022-12-05T03:28:31.761Z,1.69
2022-12-05T03:33:41.216Z,1.67
2022-12-05T03:38:52.008Z,1.67
2022-12-05T03:44:18.623Z,1.69
2022-12-05T03:49:40.324Z,1.66
2022-12-05T03:55:04.897Z,1.68
2022-12-05T04:00:13.117Z,1.61
2022-12-05T04:05:22.113Z,1.55
2022-12-05T04:10:31.369Z,1.57
2022-12-05T04:15:55.281Z,1.60
2022-12-05T04:21:17.502Z,1.53
2022-12-05T04:26:31.869Z,1.55
2022-12-05T04:31:49.567Z,1.52
2022-12-05T04:37:04.644Z,1.53
2022-12-05T04:42:30.236Z,1.58
2022-12-05T04:47:40.385Z,1.59
2022-12-05T04:52:50.362Z,1.62
2022-12-05T04:58:15.079Z,1.57
2022-12-05T05:03:27.257Z,1.48
2022-12-05T05:08:31.079Z,1.57
2022-12-05T05:13:34.123Z,1.76
2022-12-05T05:18:38.127Z,1.83
2022-12-05T05:23:41.693Z,1.81
2022-12-05T05:28:46.114Z,1.80
2022-12-05T05:33:56.086Z,1.79
2022-12-05T05:39:02.112Z,1.72
2022-12-05T05:44:06.284Z,1.79
2022-12-05T05:49:11.125Z,1.88
2022-12-05T05:54:15.228Z,2.00
2022-12-05T05:59:18.501Z,2.06
2022-12-05T06:04:22.046Z,2.01
2022-12-05T06:09:25.179Z,2.23
2022-12-05T06:14:28.440Z,2.27
2022-12-05T06:19:31.622Z,2.43
2022-12-05T06:24:34.711Z,2.51
2022-12-05T06:29:37.998Z,2.76
2022-12-05T06:34:41.622Z,3.06
2022-12-05T06:39:45.192Z,3.39
2022-12-05T06:44:48.368Z,3.74
2022-12-05T06:49:51.904Z,4.17
2022-12-05T06:54:54.986Z,4.73
2022-12-05T07:00:22.174Z,5.30
2022-12-05T07:05:25.403Z,10.86
2022-12-05T07:10:29.312Z,14.97
2022-12-05T07:15:32.855Z,16.61
2022-12-05T07:21:10.100Z,18.97
2022-12-05T07:26:00.012Z,20.79
2022-12-05T07:31:05.276Z,21.35
2022-12-05T07:36:13.118Z,22.57
2022-12-05T07:41:29.086Z,22.24
2022-12-05T07:46:32.840Z,23.66
2022-12-05T07:51:36.276Z,24.78
2022-12-05T07:56:43.291Z,24.86
2022-12-05T08:01:50.727Z,24.62
2022-12-05T08:06:53.975Z,23.17
2022-12-05T08:11:57.486Z,22.58
2022-12-05T08:17:00.604Z,22.72
2022-12-05T08:22:04.584Z,22.73
2022-12-05T08:27:07.638Z,24.82
2022-12-05T08:32:10.776Z,23.43
2022-12-05T08:37:14.601Z,22.52
2022-12-05T08:42:18.201Z,22.50
2022-12-05T08:47:21.248Z,21.97
2022-12-05T08:52:24.380Z,23.80
2022-12-05T08:57:27.639Z,23.01
2022-12-05T09:02:31.933Z,22.70
2022-12-05T09:07:35.195Z,23.09
2022-12-05T09:12:38.999Z,22.89
2022-12-05T09:17:42.505Z,21.60
2022-12-05T09:22:46.136Z,22.24
2022-12-05T09:27:49.195Z,22.21
2022-12-05T09:32:52.961Z,22.55
2022-12-05T09:37:57.371Z,22.45
2022-12-05T09:43:08.159Z,22.61
2022-12-05T09:48:15.915Z,24.04
2022-12-05T09:53:41.667Z,24.07
2022-12-05T09:58:46.519Z,22.62
2022-12-05T10:04:27.053Z,22.29
2022-12-05T10:09:36.054Z,21.71
2022-12-05T10:15:16.500Z,22.45
2022-12-05T10:20:27.999Z,22.46
2022-12-05T10:25:33.305Z,21.47
2022-12-05T10:30:37.725Z,21.46
2022-12-05T10:35:41.886Z,21.23
2022-12-05T10:40:50.843Z,20.80
2022-12-05T10:45:54.332Z,19.82
2022-12-05T10:51:00.372Z,18.54
2022-12-05T10:56:29.858Z,18.62
2022-12-05T11:01:28.897Z,18.62
2022-12-05T11:06:33.259Z,18.24
2022-12-05T11:11:36.485Z,18.44
2022-12-05T11:16:40.077Z,17.94
2022-12-05T11:21:44.648Z,17.54
2022-12-05T11:26:47.740Z,17.75
2022-12-05T11:31:52.902Z,17.62
2022-12-05T11:37:06.859Z,17.74
2022-12-05T11:42:41.828Z,17.93
2022-12-05T11:48:10.757Z,18.13
2022-12-05T11:53:20.094Z,18.32
2022-12-05T11:58:41.616Z,18.19
2022-12-05T12:03:47.450Z,18.64
2022-12-05T12:09:17.648Z,18.42
2022-12-05T12:14:47.554Z,18.71
2022-12-05T12:20:19.757Z,18.91
2022-12-05T12:25:26.336Z,18.87
2022-12-05T12:30:34.421Z,19.33
2022-12-05T12:36:24.162Z,19.76
2022-12-05T12:41:30.901Z,20.05
2022-12-05T12:46:49.386Z,20.24
2022-12-05T12:51:55.514Z,19.69
2022-12-05T12:57:24.245Z,21.08
2022-12-05T13:02:40.214Z,20.56
2022-12-05T13:07:50.138Z,20.32
2022-12-05T13:12:56.629Z,20.49
2022-12-05T13:18:02.495Z,20.55
2022-12-05T13:23:08.610Z,20.36
2022-12-05T13:28:45.146Z,19.63
2022-12-05T13:33:49.399Z,19.25
2022-12-05T13:39:16.566Z,19.40
2022-12-05T13:44:33.568Z,19.35
2022-12-05T13:49:45.624Z,18.90
2022-12-05T13:55:22.992Z,18.79
2022-12-05T14:00:39.136Z,18.88
2022-12-05T14:05:48.049Z,18.69
2022-12-05T14:10:51.021Z,18.77
2022-12-05T14:15:55.548Z,17.98
2022-12-05T14:21:04.587Z,16.45
2022-12-05T14:26:32.657Z,15.98
2022-12-05T14:31:58.394Z,15.20
2022-12-05T14:37:25.311Z,14.47
2022-12-05T14:42:44.464Z,14.09
2022-12-05T14:47:54.094Z,13.51
2022-12-05T14:53:15.848Z,13.65
2022-12-05T14:58:40.561Z,13.31
2022-12-05T15:04:07.228Z,12.86
2022-12-05T15:09:38.332Z,12.54
2022-12-05T15:15:06.047Z,12.25
2022-12-05T15:20:26.284Z,11.97
2022-12-05T15:25:32.172Z,11.60
2022-12-05T15:30:39.921Z,11.23
2022-12-05T15:35:48.658Z,10.67
2022-12-05T15:40:52.069Z,10.09
2022-12-05T15:46:24.688Z,9.58
2022-12-05T15:51:36.308Z,9.25
2022-12-05T15:56:46.133Z,9.13
2022-12-05T16:01:57.789Z,9.03
2022-12-05T16:07:07.343Z,8.78
2022-12-05T16:12:28.786Z,8.75
2022-12-05T16:17:44.151Z,8.73
2022-12-05T16:22:56.156Z,8.46
2022-12-05T16:28:04.455Z,8.16
2022-12-05T16:33:15.607Z,7.90
2022-12-05T16:38:32.030Z,7.68
2022-12-05T16:43:35.399Z,7.42
2022-12-05T16:48:39.345Z,7.10
2022-12-05T16:53:46.416Z,6.90
2022-12-05T16:58:50.023Z,6.61
2022-12-05T17:03:55.165Z,6.47
2022-12-05T17:08:58.240Z,6.25
2022-12-05T17:14:01.921Z,6.09
2022-12-05T17:19:05.973Z,5.91
2022-12-05T17:24:20.599Z,5.80
2022-12-05T17:29:25.602Z,5.65
2022-12-05T17:34:30.778Z,5.50
2022-12-05T17:39:33.801Z,5.39
2022-12-05T17:44:37.997Z,5.26
2022-12-05T17:49:41.615Z,5.11
2022-12-05T17:54:44.783Z,5.05
2022-12-05T17:59:48.085Z,5.05
2022-12-05T18:04:52.276Z,5.08
2022-12-05T18:09:56.501Z,5.02
2022-12-05T18:15:00.206Z,4.80
2022-12-05T18:20:04.478Z,4.67
2022-12-05T18:25:09.047Z,4.67
2022-12-05T18:30:13.263Z,4.64
2022-12-05T18:35:16.711Z,4.61
2022-12-05T18:40:20.261Z,4.52
2022-12-05T18:45:23.408Z,4.46
2022-12-05T18:50:26.431Z,4.54
2022-12-05T18:55:57.909Z,4.51
2022-12-05T19:00:53.042Z,4.58
2022-12-05T19:05:56.159Z,4.54
2022-12-05T19:11:05.014Z,4.51
2022-12-05T19:16:14.341Z,4.43
2022-12-05T19:21:17.426Z,4.29
2022-12-05T19:26:23.183Z,4.23
2022-12-05T19:31:28.247Z,3.99
2022-12-05T19:36:37.637Z,3.91
2022-12-05T19:41:40.733Z,3.80
2022-12-05T19:46:44.809Z,3.69
2022-12-05T19:51:49.236Z,3.63
2022-12-05T19:56:52.987Z,3.56
2022-12-05T20:01:56.355Z,3.58
2022-12-05T20:06:59.645Z,3.43
2022-12-05T20:12:04.532Z,3.38
2022-12-05T20:17:07.956Z,3.23
2022-12-05T20:22:11.409Z,3.32
2022-12-05T20:27:14.911Z,3.31
2022-12-05T20:32:17.978Z,3.26
2022-12-05T20:37:20.957Z,3.21
2022-12-05T20:42:23.983Z,3.22
2022-12-05T20:47:27.062Z,3.13
2022-12-05T20:52:31.552Z,3.08
2022-12-05T20:57:36.500Z,2.99
2022-12-05T21:02:40.424Z,3.10
2022-12-05T21:07:43.514Z,3.10
2022-12-05T21:12:46.891Z,3.01
2022-12-05T21:17:49.901Z,2.98
2022-12-05T21:22:53.168Z,3.02
2022-12-05T21:27:56.133Z,3.09
2022-12-05T21:32:59.035Z,3.15
2022-12-05T21:38:02.711Z,3.39
2022-12-05T21:43:05.724Z,3.56
2022-12-05T21:48:09.388Z,3.86
2022-12-05T21:53:12.836Z,3.97
2022-12-05T21:58:16.288Z,4.13
2022-12-05T22:03:20.059Z,4.08
2022-12-05T22:08:23.084Z,4.33
2022-12-05T22:13:27.081Z,4.89
2022-12-05T22:18:30.789Z,5.31
2022-12-05T22:23:35.003Z,5.75
2022-12-05T22:28:38.123Z,5.60
2022-12-05T22:33:42.115Z,5.49
2022-12-05T22:38:47.481Z,5.69
2022-12-05T22:43:55.933Z,5.44
2022-12-05T22:48:59.016Z,5.56
2022-12-05T22:54:02.664Z,5.22
2022-12-05T22:59:08.206Z,5.15
2022-12-05T23:04:14.112Z,5.29
2022-12-05T23:09:18.511Z,5.41
2022-12-05T23:14:22.048Z,5.56
2022-12-05T23:19:25.487Z,5.79
2022-12-05T23:24:28.655Z,5.97
2022-12-05T23:29:31.789Z,6.00
2022-12-05T23:34:34.878Z,5.96
2022-12-05T23:39:38.782Z,6.04
2022-12-05T23:44:41.932Z,6.08
2022-12-05T23:49:45.041Z,6.17
2022-12-05T23:54:48.645Z,6.15
2022-12-05T23:59:51.872Z,6.16
